Briefing drone pour Dijon (LFSD)

Rechercher une autre localisation

Conditions de vol :


Nous sommes le : Dimanche 27 septembre 2020
Il est 20:39 UTC (22:39 LT)

Lever de soleil : 05:07 UTC (07:07 LT)
Coucher de soleil : 17:53 UTC (19:53 LT)

Météo

L'essentiel des conditions de vol

VIGILANCE MÉTÉO FRANCE - Côte-dOr (21)
Vigilance Jaune : Pluie-inondation
METAR de LFSD
LFSD 272030Z AUTO 19008KT 9999 OVC004 09/09 Q1007

Date d'émission: 27/09/2020
Heure d'émission: 20:30 UTC
Vent: 190° pour 8 KT (15 km/h)
Visibilité horizontale: > 10 km
Plafond :
- Couvert à 400ft (122m)
Température: 9 °C
Point de rosée: 9 °C
Humidité: 100%
Pression (QNH): 1007 hPa
TAF de LFSD
LFSD 010600Z 0100/0124 CNL

Conditions prévues :

Heure d'émission : Bulletin éffectué le 01 à 00:00 UTC
Prévision : Valide du 01 a 00:00 UTC au 01 a 23:59 UTC
Nuages : à 0ft (0 m)
WEBCAM POUR DIJON

Réglementation

Voler en sécurité

CARTES AERONAUTIQUE 1/500.000
CARTES VAC (LFSD)
SUP AIP




Chargement des AIP...
NOTAM (DIJON + Terrain à proximité / FIR )




Chargement des NOTAMS...
CONTACT PREFECTURE 21
Côte-dOr (21) : pref-drone@cote-dor.gouv.fr


Avertissement : Les données mises à disposition sont indicatives. Oxygène Drone ne pourra être tenu responsable de dégâts causés aux biens et aux personnes.